KFEP/FEP METAR and TAF weather

Enter ICAO airport designator
Station Type Date Time Source
KFEP METAR 2019/04/25 17:35 UTC NOAA

KFEP 251735Z AUTO 00000KT 10SM CLR 19/09 A2977 RMK AO2 T01880088


Station Type Date Time Source
KFEP Decoded METAR 2019/04/25 17:35 UTC NOAA

Freeport, Albertus Airport, IL, United States (KFEP) 42-14-47N 089-34-56W
Apr 25, 2019 - 01:35 PM EDT / 2019.04.25 1735 UTC
Wind: Calm:0
Visibility: 10 mile(s):0
Sky conditions: clear
Temperature: 65.8 F (18.8 C)
Dew Point: 47.8 F (8.8 C)
Relative Humidity: 52%
Pressure (altimeter): 29.77 in. Hg (1008 hPa)
ob: KFEP 251735Z AUTO 00000KT 10SM CLR 19/09 A2977 RMK AO2 T01880088
cycle: 17

Station Type Date Time Source
KFEP TAF UTC NOAA

Error!

Example: see airport list